Time;durP1;ratioP1;P1;durP2;ratioP2;P2;SDS_P1;SDS_P2;PMS_P1;PMS_P2;Temp;Humidity;BMP_temperature;BMP_pressure;BME280_temperature;BME280_humidity;BME280_pressure;Samples;Min_cycle;Max_cycle;Signal;HPM_P1;HPM_P2
2023/09/10 00:01:14;;;;;;;11.57;10.43;;;;;;;14.15;100.00;99585.78;5006194;28;20245;-85
2023/09/10 00:03:42;;;;;;;11.70;10.60;;;;;;;14.11;100.00;99591.66;5022461;28;20191;-84
2023/09/10 00:06:10;;;;;;;11.43;10.43;;;;;;;14.07;100.00;99587.81;5008265;28;20224;-83
2023/09/10 00:08:43;;;;;;;12.03;10.87;;;;;;;14.06;100.00;99585.38;5009482;28;20232;-83
2023/09/10 00:11:15;;;;;;;11.43;10.53;;;;;;;14.04;100.00;99593.69;5005260;28;20274;-84
2023/09/10 00:13:42;;;;;;;12.83;11.53;;;;;;;14.01;100.00;99587.97;5008610;28;20207;-84
2023/09/10 00:16:17;;;;;;;11.70;10.60;;;;;;;13.97;100.00;99589.50;5005329;28;20199;-84
2023/09/10 00:18:46;;;;;;;11.73;10.73;;;;;;;13.94;100.00;99585.44;4993019;28;20203;-83
2023/09/10 00:21:17;;;;;;;12.03;11.07;;;;;;;13.93;100.00;99596.44;4979718;28;20214;-83
2023/09/10 00:23:50;;;;;;;12.13;11.03;;;;;;;13.87;100.00;99592.03;4994612;28;20203;-83
2023/09/10 00:26:20;;;;;;;12.07;11.07;;;;;;;13.86;100.00;99593.06;4992749;28;20207;-83
2023/09/10 00:28:49;;;;;;;12.33;11.27;;;;;;;13.83;100.00;99596.25;4994844;28;20229;-83
2023/09/10 00:31:19;;;;;;;11.80;10.90;;;;;;;13.81;100.00;99585.72;4995617;28;20217;-83
2023/09/10 00:33:46;;;;;;;11.90;10.90;;;;;;;13.79;100.00;99585.16;5010207;28;20198;-84
2023/09/10 00:36:17;;;;;;;12.00;10.87;;;;;;;13.79;100.00;99590.53;4995695;28;20525;-84
2023/09/10 00:38:45;;;;;;;13.40;12.03;;;;;;;13.77;100.00;99586.44;5006660;28;20218;-84
2023/09/10 00:41:17;;;;;;;12.23;11.23;;;;;;;13.73;100.00;99586.13;5013260;28;20235;-83
2023/09/10 00:43:53;;;;;;;12.53;11.53;;;;;;;13.70;100.00;99586.59;4981218;28;20710;-83
2023/09/10 00:46:32;;;;;;;13.00;11.90;;;;;;;13.64;100.00;99584.88;4995495;28;20217;-84
2023/09/10 00:49:04;;;;;;;12.87;11.67;;;;;;;13.60;100.00;99581.03;5003231;28;20211;-83
2023/09/10 00:51:33;;;;;;;12.40;11.23;;;;;;;13.59;100.00;99585.59;5013424;28;20194;-83
2023/09/10 00:54:07;;;;;;;13.03;11.93;;;;;;;13.56;100.00;99586.06;4978880;28;20297;-83
2023/09/10 00:56:37;;;;;;;12.77;11.57;;;;;;;13.54;100.00;99584.66;5007471;28;20214;-83
2023/09/10 00:59:26;;;;;;;12.60;11.50;;;;;;;13.55;100.00;99589.00;5004247;28;20195;-83
2023/09/10 01:01:55;;;;;;;11.93;10.93;;;;;;;13.50;100.00;99591.59;4993607;28;20204;-82
2023/09/10 01:04:27;;;;;;;12.90;11.80;;;;;;;13.47;100.00;99590.22;4992717;28;20719;-82
2023/09/10 01:07:05;;;;;;;12.00;11.00;;;;;;;13.44;100.00;99587.97;5011202;28;20672;-82
2023/09/10 01:09:40;;;;;;;11.60;10.60;;;;;;;13.42;100.00;99587.41;4992885;28;20203;-82
2023/09/10 01:12:30;;;;;;;12.63;11.50;;;;;;;13.42;100.00;99590.09;5025773;28;20198;-81
2023/09/10 01:15:23;;;;;;;11.90;10.90;;;;;;;13.38;100.00;99590.81;5017605;28;20183;-81
2023/09/10 01:18:08;;;;;;;12.07;11.17;;;;;;;13.31;100.00;99582.88;5027473;28;20274;-81
2023/09/10 01:20:49;;;;;;;13.00;11.90;;;;;;;13.29;100.00;99584.19;4981503;28;20240;-81
2023/09/10 01:23:28;;;;;;;12.17;11.23;;;;;;;13.19;100.00;99582.09;4998607;28;20635;-81
2023/09/10 01:25:59;;;;;;;12.47;11.37;;;;;;;13.16;100.00;99588.75;5002198;28;20187;-81
2023/09/10 01:28:30;;;;;;;13.00;11.80;;;;;;;13.12;100.00;99584.91;5000169;28;20221;-80
2023/09/10 01:30:59;;;;;;;12.77;11.67;;;;;;;13.09;100.00;99587.22;5015956;28;20256;-81
2023/09/10 01:33:35;;;;;;;12.70;11.50;;;;;;;13.09;100.00;99589.91;4998139;28;20294;-81
2023/09/10 01:36:22;;;;;;;12.67;11.67;;;;;;;13.04;100.00;99585.25;4984332;28;20190;-81
2023/09/10 01:39:00;;;;;;;12.53;11.47;;;;;;;13.02;100.00;99586.53;4986645;28;20199;-81
2023/09/10 01:41:32;;;;;;;12.93;11.93;;;;;;;12.99;100.00;99590.50;5004329;28;20288;-81
2023/09/10 01:44:08;;;;;;;12.93;11.90;;;;;;;13.00;100.00;99585.94;5003692;28;20219;-81
2023/09/10 01:46:53;;;;;;;12.77;11.77;;;;;;;12.93;100.00;99586.06;4996117;28;20182;-81
2023/09/10 01:49:24;;;;;;;13.23;12.00;;;;;;;12.90;100.00;99591.09;5006853;28;20169;-81
2023/09/10 01:54:49;;;;;;;12.60;11.57;;;;;;;12.79;100.00;99587.38;5011110;28;20199;-81
2023/09/10 01:57:20;;;;;;;13.17;11.97;;;;;;;12.75;100.00;99589.72;5011841;28;20196;-81
2023/09/10 01:59:50;;;;;;;13.03;11.90;;;;;;;12.75;100.00;99594.25;4994463;28;20201;-81
2023/09/10 02:02:20;;;;;;;13.00;11.80;;;;;;;12.73;100.00;99597.22;4980545;28;20229;-81
2023/09/10 02:04:52;;;;;;;13.07;11.97;;;;;;;12.69;100.00;99596.00;4995195;28;20576;-81
2023/09/10 02:07:24;;;;;;;13.27;11.97;;;;;;;12.66;100.00;99587.59;5010192;28;20234;-81
2023/09/10 02:09:52;;;;;;;13.80;12.57;;;;;;;12.65;100.00;99596.72;5011589;28;20221;-80
2023/09/10 02:12:27;;;;;;;12.97;11.87;;;;;;;12.61;100.00;99591.00;5010049;28;20657;-81
2023/09/10 02:14:59;;;;;;;12.60;11.40;;;;;;;12.57;100.00;99605.13;4995944;28;20194;-82
2023/09/10 02:17:32;;;;;;;13.73;12.50;;;;;;;12.54;100.00;99600.25;4995282;28;20251;-81
2023/09/10 02:20:02;;;;;;;13.20;12.07;;;;;;;12.49;100.00;99602.81;5011471;28;20182;-82
2023/09/10 02:22:33;;;;;;;13.20;12.20;;;;;;;12.45;100.00;99607.81;5011506;28;20201;-82
2023/09/10 02:25:32;;;;;;;12.60;11.47;;;;;;;12.39;100.00;99608.75;4999405;28;20230;-82
2023/09/10 02:32:55;;;;;;;12.80;11.80;;;;;;;12.23;100.00;99604.03;4933626;29;20213;-83
2023/09/10 02:36:13;;;;;;;13.23;11.97;;;;;;;12.18;100.00;99611.97;4885598;29;20205;-82
2023/09/10 02:38:43;;;;;;;13.30;12.10;;;;;;;12.19;100.00;99605.53;4875244;29;20299;-82
2023/09/10 02:45:46;;;;;;;13.17;11.87;;;;;;;12.14;100.00;99602.72;4865705;29;20214;-82
2023/09/10 02:48:20;;;;;;;12.83;11.83;;;;;;;12.13;100.00;99601.13;4894155;29;20207;-82
2023/09/10 02:51:16;;;;;;;13.20;12.00;;;;;;;12.11;100.00;99603.19;4894754;29;20261;-82
2023/09/10 02:53:49;;;;;;;13.00;11.73;;;;;;;12.10;100.00;99602.38;4895013;29;20205;-82
2023/09/10 02:57:16;;;;;;;12.43;11.43;;;;;;;12.06;100.00;99603.91;4856789;29;20228;-82
2023/09/10 03:04:23;;;;;;;13.10;11.93;;;;;;;12.02;100.00;99616.16;4827140;29;20230;-81
2023/09/10 03:06:52;;;;;;;12.60;11.40;;;;;;;12.00;100.00;99612.03;4901161;29;20231;-81
2023/09/10 03:09:19;;;;;;;12.43;11.33;;;;;;;11.97;100.00;99616.00;4900975;29;20202;-81
2023/09/10 03:11:46;;;;;;;13.20;11.90;;;;;;;11.93;100.00;99605.97;4901163;29;20215;-81
2023/09/10 03:14:23;;;;;;;12.30;11.10;;;;;;;11.90;100.00;99616.09;4901632;29;20173;-81
2023/09/10 03:16:58;;;;;;;12.97;11.80;;;;;;;11.86;100.00;99611.41;4901387;29;20212;-81
2023/09/10 03:19:35;;;;;;;13.40;12.20;;;;;;;11.85;100.00;99618.63;4888838;29;20190;-81
2023/09/10 03:22:10;;;;;;;12.77;11.50;;;;;;;11.82;100.00;99619.09;4900517;29;20221;-81
2023/09/10 03:24:44;;;;;;;12.63;11.53;;;;;;;11.80;100.00;99615.81;4900462;29;20284;-81
2023/09/10 03:27:27;;;;;;;13.00;11.90;;;;;;;11.77;100.00;99612.78;4942855;28;20206;-80
2023/09/10 03:30:00;;;;;;;13.23;12.13;;;;;;;11.69;100.00;99615.75;4962594;28;20199;-81
2023/09/10 03:32:30;;;;;;;12.70;11.57;;;;;;;11.64;100.00;99616.44;4979805;28;20228;-81
2023/09/10 03:34:58;;;;;;;13.10;12.03;;;;;;;11.62;100.00;99623.09;4961213;28;20190;-81
2023/09/10 03:37:27;;;;;;;12.30;11.20;;;;;;;11.59;100.00;99628.88;4945445;28;20197;-81
2023/09/10 03:40:04;;;;;;;13.17;11.97;;;;;;;11.55;100.00;99619.66;4961921;28;20317;-81
2023/09/10 03:42:39;;;;;;;13.30;12.20;;;;;;;11.54;100.00;99620.69;4976657;28;20318;-81
2023/09/10 03:45:07;;;;;;;12.93;11.83;;;;;;;11.53;100.00;99619.03;4965726;28;20196;-81
2023/09/10 03:47:37;;;;;;;13.23;12.13;;;;;;;11.50;100.00;99617.66;4999176;28;20177;-81
2023/09/10 03:50:13;;;;;;;12.70;11.60;;;;;;;11.47;100.00;99616.25;4998830;28;20193;-81
2023/09/10 03:52:43;;;;;;;12.50;11.50;;;;;;;11.46;100.00;99611.09;4997079;28;20224;-81
2023/09/10 03:55:22;;;;;;;13.20;11.93;;;;;;;11.45;100.00;99617.50;4998703;28;20188;-81
2023/09/10 03:58:02;;;;;;;12.17;11.17;;;;;;;11.43;100.00;99620.41;4983853;28;20188;-81
2023/09/10 04:00:30;;;;;;;12.43;11.40;;;;;;;11.43;100.00;99620.41;4998178;28;20241;-81
2023/09/10 04:02:58;;;;;;;12.57;11.53;;;;;;;11.42;100.00;99616.09;4963973;28;20748;-81
2023/09/10 04:05:30;;;;;;;12.57;11.40;;;;;;;11.41;100.00;99610.94;4980493;28;20220;-81
2023/09/10 04:07:59;;;;;;;13.10;12.07;;;;;;;11.43;100.00;99616.94;4995899;28;20219;-81
2023/09/10 04:10:33;;;;;;;12.67;11.57;;;;;;;11.40;100.00;99607.44;4996368;28;20568;-81
2023/09/10 04:13:11;;;;;;;12.57;11.47;;;;;;;11.39;100.00;99613.84;4997489;28;20190;-81
2023/09/10 04:15:49;;;;;;;12.53;11.43;;;;;;;11.37;100.00;99618.63;4997363;28;20196;-81
2023/09/10 04:18:17;;;;;;;12.37;11.37;;;;;;;11.36;100.00;99613.50;4998498;28;20215;-81
2023/09/10 04:20:48;;;;;;;12.70;11.60;;;;;;;11.36;100.00;99619.69;4996764;28;20189;-81
2023/09/10 04:23:23;;;;;;;13.00;11.80;;;;;;;11.34;100.00;99619.06;4964713;28;20217;-81
2023/09/10 04:25:51;;;;;;;13.63;12.53;;;;;;;11.32;100.00;99621.19;4981760;28;20220;-81
2023/09/10 04:28:35;;;;;;;13.03;11.80;;;;;;;11.31;100.00;99616.84;4998119;28;20185;-81
2023/09/10 04:31:15;;;;;;;13.53;12.17;;;;;;;11.29;100.00;99618.13;4997397;28;20184;-81
2023/09/10 04:33:45;;;;;;;13.40;12.20;;;;;;;11.31;100.00;99619.53;4979716;28;20201;-81
2023/09/10 04:36:14;;;;;;;13.53;12.33;;;;;;;11.31;100.00;99624.06;4979747;28;20189;-81
2023/09/10 04:38:42;;;;;;;13.13;12.03;;;;;;;11.34;100.00;99618.25;4978417;28;20226;-79
2023/09/10 04:41:14;;;;;;;13.73;12.53;;;;;;;11.36;100.00;99621.53;4962825;28;20247;-80
2023/09/10 04:43:45;;;;;;;14.10;12.87;;;;;;;11.42;100.00;99629.53;4996269;28;20688;-81
2023/09/10 04:46:17;;;;;;;14.23;13.03;;;;;;;11.48;100.00;99631.28;4996425;28;20225;-81
2023/09/10 04:48:46;;;;;;;13.67;12.37;;;;;;;11.53;100.00;99630.59;4962771;28;20677;-81
2023/09/10 04:51:28;;;;;;;13.40;12.20;;;;;;;11.60;100.00;99628.66;4981652;28;20173;-81
2023/09/10 04:54:03;;;;;;;13.97;12.77;;;;;;;11.66;100.00;99627.78;4963910;28;20196;-81
2023/09/10 04:56:32;;;;;;;13.77;12.50;;;;;;;11.76;100.00;99632.59;4963579;28;20292;-81
2023/09/10 04:59:04;;;;;;;14.20;13.00;;;;;;;11.87;100.00;99631.84;4995369;28;20202;-81
2023/09/10 05:01:33;;;;;;;13.90;12.70;;;;;;;12.01;100.00;99635.16;4949097;28;20197;-81
2023/09/10 05:04:09;;;;;;;13.63;12.33;;;;;;;12.12;100.00;99637.91;4979559;28;20197;-81
2023/09/10 05:06:44;;;;;;;14.13;12.87;;;;;;;12.26;100.00;99642.03;4997832;28;20190;-80
2023/09/10 05:09:18;;;;;;;13.23;12.03;;;;;;;12.38;100.00;99650.09;4964229;28;20226;-81
2023/09/10 05:11:47;;;;;;;13.20;12.10;;;;;;;12.50;100.00;99650.94;4997931;28;20263;-81
2023/09/10 05:14:16;;;;;;;13.10;12.00;;;;;;;12.61;100.00;99642.06;4999041;28;20248;-81
2023/09/10 05:16:44;;;;;;;13.53;12.47;;;;;;;12.75;100.00;99651.53;4997846;28;20206;-81
2023/09/10 05:19:15;;;;;;;13.47;12.40;;;;;;;12.87;100.00;99640.81;4966283;28;20287;-81
2023/09/10 05:21:59;;;;;;;12.17;11.23;;;;;;;13.02;100.00;99645.69;4967280;28;20217;-81
2023/09/10 05:24:33;;;;;;;12.80;11.70;;;;;;;13.11;100.00;99638.97;4999548;28;20211;-81
2023/09/10 05:27:03;;;;;;;12.23;11.23;;;;;;;13.27;100.00;99642.78;4983038;28;20198;-81
2023/09/10 05:29:36;;;;;;;12.10;11.10;;;;;;;13.41;100.00;99654.91;4999040;28;20202;-80
2023/09/10 05:32:12;;;;;;;12.80;11.60;;;;;;;13.56;100.00;99645.28;4982472;28;20196;-80
2023/09/10 05:34:45;;;;;;;12.90;11.80;;;;;;;13.70;100.00;99651.22;4983022;28;20206;-80
2023/09/10 05:37:22;;;;;;;12.23;11.23;;;;;;;13.85;100.00;99648.00;4980414;28;20567;-81
2023/09/10 05:39:58;;;;;;;11.93;10.97;;;;;;;13.99;100.00;99649.34;4964328;28;20286;-80
2023/09/10 05:42:25;;;;;;;11.20;10.30;;;;;;;14.15;100.00;99658.53;4993008;28;20243;-80
2023/09/10 05:44:55;;;;;;;12.27;11.07;;;;;;;14.29;100.00;99657.97;4976563;28;20219;-81
2023/09/10 05:47:28;;;;;;;11.63;10.63;;;;;;;14.45;100.00;99656.41;4984700;28;20199;-82
2023/09/10 05:50:01;;;;;;;12.20;11.20;;;;;;;14.59;100.00;99657.72;5012380;28;20254;-82
2023/09/10 05:52:32;;;;;;;11.77;10.67;;;;;;;14.70;100.00;99662.19;5016050;28;20309;-82
2023/09/10 05:55:01;;;;;;;12.10;10.90;;;;;;;14.83;100.00;99658.38;4964726;28;20221;-81
2023/09/10 05:57:33;;;;;;;10.93;10.03;;;;;;;14.95;100.00;99665.31;4988451;28;20203;-84
2023/09/10 06:00:23;;;;;;;10.87;9.97;;;;;;;15.14;100.00;99662.31;4978650;28;20214;-83
2023/09/10 06:02:58;;;;;;;11.47;10.47;;;;;;;15.26;100.00;99657.63;4995461;28;20227;-84
2023/09/10 06:05:30;;;;;;;11.43;10.43;;;;;;;15.40;100.00;99653.50;4985121;28;20200;-84
2023/09/10 06:08:00;;;;;;;11.27;10.37;;;;;;;15.55;100.00;99656.44;4981136;28;20286;-84
2023/09/10 06:10:29;;;;;;;10.87;9.97;;;;;;;15.68;100.00;99650.66;4981771;28;20199;-84
2023/09/10 06:12:59;;;;;;;10.83;9.83;;;;;;;15.82;100.00;99651.88;4984022;28;20210;-84
2023/09/10 06:15:30;;;;;;;10.63;9.83;;;;;;;15.96;100.00;99651.53;4991593;28;20211;-84
2023/09/10 06:18:01;;;;;;;10.90;10.00;;;;;;;16.08;100.00;99649.47;5011716;28;20281;-84
2023/09/10 06:20:30;;;;;;;11.37;10.37;;;;;;;16.21;100.00;99649.88;5010886;28;20195;-84
2023/09/10 06:22:58;;;;;;;11.73;10.63;;;;;;;16.35;100.00;99652.97;4970380;28;20234;-84
2023/09/10 06:25:34;;;;;;;10.53;9.63;;;;;;;16.48;100.00;99646.31;4997264;28;20757;-83
2023/09/10 06:28:02;;;;;;;11.10;10.20;;;;;;;16.61;100.00;99644.03;5011858;28;20207;-84
2023/09/10 06:30:39;;;;;;;11.00;10.00;;;;;;;16.77;100.00;99652.28;4997126;28;20210;-83
2023/09/10 06:33:09;;;;;;;12.27;11.27;;;;;;;16.88;100.00;99654.81;4983899;28;20345;-85
2023/09/10 06:35:36;;;;;;;11.57;10.57;;;;;;;17.02;100.00;99655.16;4999416;28;20203;-85
2023/09/10 06:38:07;;;;;;;11.77;10.53;;;;;;;17.17;100.00;99656.06;5016080;28;20206;-85
2023/09/10 06:40:41;;;;;;;11.67;10.70;;;;;;;17.31;100.00;99655.63;4989086;28;20587;-84
2023/09/10 06:43:16;;;;;;;13.07;11.87;;;;;;;17.43;100.00;99659.72;4965939;28;20253;-84
2023/09/10 06:46:07;;;;;;;12.80;11.63;;;;;;;17.59;100.00;99663.34;5002081;28;20207;-84
2023/09/10 06:48:38;;;;;;;12.70;11.60;;;;;;;17.66;100.00;99661.22;4974538;28;20297;-84
2023/09/10 06:51:05;;;;;;;12.07;11.07;;;;;;;17.82;100.00;99664.81;4971925;28;20288;-84
2023/09/10 06:53:46;;;;;;;12.40;11.30;;;;;;;17.92;100.00;99662.94;4986008;28;20200;-84
2023/09/10 06:56:14;;;;;;;13.60;12.07;;;;;;;18.06;100.00;99665.16;5007106;28;20218;-84
2023/09/10 06:58:42;;;;;;;13.40;12.20;;;;;;;18.13;100.00;99668.41;4985047;28;20314;-84
2023/09/10 07:01:18;;;;;;;14.60;12.27;;;;;;;18.24;100.00;99673.59;4990094;28;20300;-84
2023/09/10 07:03:57;;;;;;;13.17;11.97;;;;;;;18.36;100.00;99674.16;5013206;28;20224;-84
2023/09/10 07:06:35;;;;;;;13.50;12.20;;;;;;;18.41;100.00;99671.44;4992382;28;20184;-85
2023/09/10 07:09:05;;;;;;;13.60;12.27;;;;;;;18.53;100.00;99679.34;4995185;28;20204;-84
2023/09/10 07:11:32;;;;;;;13.17;11.97;;;;;;;18.58;100.00;99676.63;4963141;28;20213;-84
2023/09/10 07:14:08;;;;;;;12.87;11.77;;;;;;;18.70;100.00;99679.09;4983524;28;20198;-85
2023/09/10 07:16:36;;;;;;;13.07;11.70;;;;;;;18.83;100.00;99676.66;4985667;28;20294;-84
2023/09/10 07:19:05;;;;;;;12.97;11.33;;;;;;;18.88;100.00;99675.84;4974926;28;20236;-85
2023/09/10 07:21:46;;;;;;;12.73;11.53;;;;;;;19.04;100.00;99680.16;4997137;28;20210;-86
2023/09/10 07:24:16;;;;;;;12.47;11.37;;;;;;;19.11;100.00;99675.25;5013117;28;20225;-84
2023/09/10 07:26:45;;;;;;;12.13;11.10;;;;;;;19.19;100.00;99677.41;5009132;28;20217;-84
2023/09/10 07:29:20;;;;;;;12.40;11.30;;;;;;;19.30;100.00;99673.59;5012954;28;20217;-84
2023/09/10 07:31:55;;;;;;;12.67;11.57;;;;;;;19.42;100.00;99683.31;4980511;28;20678;-84
2023/09/10 07:34:25;;;;;;;12.63;11.57;;;;;;;19.42;100.00;99676.00;5001985;28;20204;-84
2023/09/10 07:36:55;;;;;;;11.33;10.27;;;;;;;19.57;100.00;99678.69;4979581;28;20256;-85
2023/09/10 07:39:29;;;;;;;11.27;10.33;;;;;;;19.74;100.00;99672.91;4979543;28;20216;-84
2023/09/10 07:41:58;;;;;;;11.10;10.00;;;;;;;19.88;100.00;99676.66;5008868;28;20236;-84
2023/09/10 07:44:34;;;;;;;10.67;9.70;;;;;;;20.02;100.00;99682.31;4993441;28;20233;-85
2023/09/10 07:47:05;;;;;;;12.50;10.30;;;;;;;20.14;100.00;99680.88;4980911;28;20209;-84
2023/09/10 07:49:35;;;;;;;11.53;10.43;;;;;;;20.26;100.00;99672.38;4991755;28;20277;-84
2023/09/10 07:52:04;;;;;;;10.97;9.97;;;;;;;20.41;100.00;99677.75;5009593;28;20689;-84
2023/09/10 07:54:36;;;;;;;11.00;10.07;;;;;;;20.56;100.00;99674.13;4978003;28;20218;-84
2023/09/10 07:57:06;;;;;;;10.37;9.43;;;;;;;20.63;100.00;99672.69;4989534;28;20198;-84
2023/09/10 07:59:36;;;;;;;11.10;10.00;;;;;;;20.72;100.00;99672.88;4991385;28;20194;-84
2023/09/10 08:02:03;;;;;;;10.97;9.97;;;;;;;20.67;100.00;99670.19;5012467;28;20210;-84
2023/09/10 08:04:33;;;;;;;10.00;9.20;;;;;;;20.76;100.00;99668.50;5011852;28;20250;-84
2023/09/10 08:07:13;;;;;;;10.52;9.55;;;;;;;20.82;100.00;99664.63;5012051;28;20223;-86
2023/09/10 08:09:43;;;;;;;10.50;9.63;;;;;;;20.95;100.00;99666.69;4992919;28;20250;-85
2023/09/10 08:12:12;;;;;;;10.60;9.70;;;;;;;21.05;100.00;99663.88;4979083;28;20204;-86
2023/09/10 08:14:43;;;;;;;10.15;9.25;;;;;;;21.19;100.00;99674.94;5008010;28;20202;-85
2023/09/10 08:17:22;;;;;;;9.88;9.07;;;;;;;21.04;100.00;99666.91;4963907;28;20198;-84
2023/09/10 08:19:50;;;;;;;10.93;10.02;;;;;;;21.22;100.00;99681.72;4978054;28;20439;-85
2023/09/10 08:22:17;;;;;;;10.05;9.15;;;;;;;21.31;100.00;99672.63;4991692;28;20250;-85
2023/09/10 08:24:48;;;;;;;10.38;9.48;;;;;;;21.36;100.00;99669.06;5007898;28;20228;-85
2023/09/10 08:27:17;;;;;;;10.30;9.38;;;;;;;21.43;100.00;99669.50;5009469;28;20214;-85
2023/09/10 08:29:53;;;;;;;9.90;8.98;;;;;;;21.52;100.00;99676.75;5012264;28;20350;-85
2023/09/10 08:32:29;;;;;;;10.23;9.30;;;;;;;21.51;100.00;99664.22;4996074;28;20199;-85
2023/09/10 08:35:04;;;;;;;8.75;8.05;;;;;;;21.74;100.00;99668.03;4995283;28;20623;-84
2023/09/10 08:37:38;;;;;;;10.20;8.80;;;;;;;21.82;100.00;99663.84;4994867;28;20199;-85
2023/09/10 08:40:14;;;;;;;9.88;8.98;;;;;;;21.90;100.00;99666.75;4995334;28;20248;-82
2023/09/10 08:43:08;;;;;;;9.57;8.75;;;;;;;21.99;100.00;99656.00;4994543;28;20239;-83
2023/09/10 08:45:39;;;;;;;9.50;8.48;;;;;;;22.14;100.00;99658.53;4991364;28;20215;-83
2023/09/10 08:48:15;;;;;;;9.15;8.35;;;;;;;22.27;100.00;99665.97;4991934;28;20195;-82
2023/09/10 08:50:50;;;;;;;8.70;8.00;;;;;;;22.36;100.00;99666.13;4960020;28;20291;-82
2023/09/10 08:53:22;;;;;;;8.70;8.00;;;;;;;22.51;100.00;99662.34;4974714;28;20321;-83
2023/09/10 08:55:54;;;;;;;9.05;8.23;;;;;;;22.63;100.00;99666.22;4974133;28;20220;-83
2023/09/10 08:58:23;;;;;;;9.15;8.35;;;;;;;22.68;100.00;99666.16;4990577;28;20263;-82
2023/09/10 09:00:55;;;;;;;9.20;8.40;;;;;;;22.79;100.00;99655.91;4956477;28;20294;-84
2023/09/10 09:03:34;;;;;;;9.35;8.65;;;;;;;22.82;100.00;99652.56;4969513;28;20207;-84
2023/09/10 09:06:04;;;;;;;9.05;7.95;;;;;;;23.01;100.00;99647.84;4959687;28;20203;-83
2023/09/10 09:08:41;;;;;;;8.77;8.07;;;;;;;23.11;100.00;99647.69;4988657;28;20280;-83
2023/09/10 09:11:11;;;;;;;8.90;8.10;;;;;;;23.26;100.00;99644.66;4973678;28;20219;-82
2023/09/10 09:13:42;;;;;;;8.70;7.80;;;;;;;23.38;100.00;99641.41;4969357;28;20288;-83
2023/09/10 09:16:12;;;;;;;9.05;8.13;;;;;;;23.44;100.00;99639.41;4990600;28;20204;-82
2023/09/10 09:18:44;;;;;;;8.45;7.68;;;;;;;23.56;100.00;99639.75;4989380;28;20286;-83
2023/09/10 09:21:19;;;;;;;8.35;7.65;;;;;;;23.72;100.00;99634.75;4972447;28;20196;-83
2023/09/10 09:24:01;;;;;;;8.93;8.23;;;;;;;23.84;100.00;99638.59;4976324;28;20342;-82
2023/09/10 09:26:34;;;;;;;7.90;7.20;;;;;;;24.00;100.00;99631.66;4973386;28;20227;-82
2023/09/10 09:29:10;;;;;;;8.15;7.38;;;;;;;24.16;100.00;99625.84;4957628;28;20215;-83
2023/09/10 09:31:38;;;;;;;7.90;7.30;;;;;;;24.30;100.00;99629.38;4973457;28;20227;-82
2023/09/10 09:34:10;;;;;;;7.78;7.20;;;;;;;24.49;100.00;99636.31;4992694;28;20215;-82
2023/09/10 09:36:42;;;;;;;8.02;7.25;;;;;;;24.66;100.00;99621.91;4994070;28;20212;-85
2023/09/10 09:39:16;;;;;;;7.03;6.53;;;;;;;24.79;100.00;99623.75;4973372;28;20226;-83
2023/09/10 09:41:49;;;;;;;7.97;7.28;;;;;;;24.89;100.00;99625.47;4966060;28;20252;-82
2023/09/10 09:44:18;;;;;;;8.73;7.88;;;;;;;24.91;100.00;99624.03;5008995;28;20222;-83
2023/09/10 09:46:49;;;;;;;8.57;7.78;;;;;;;24.90;100.00;99627.09;5012198;28;20193;-84
2023/09/10 09:49:19;;;;;;;8.82;8.13;;;;;;;25.09;100.00;99624.13;5012817;28;20205;-82
2023/09/10 09:51:48;;;;;;;8.23;7.63;;;;;;;25.21;100.00;99622.41;5007450;28;20286;-82
2023/09/10 09:54:23;;;;;;;8.35;7.32;;;;;;;25.50;100.00;99627.34;5010674;28;20606;-82
2023/09/10 09:56:57;;;;;;;8.15;7.55;;;;;;;25.78;100.00;99622.44;4999022;28;20198;-83
2023/09/10 09:59:25;;;;;;;7.88;7.25;;;;;;;26.04;100.00;99612.31;5014270;28;20219;-82
2023/09/10 10:02:03;;;;;;;7.75;7.15;;;;;;;26.26;100.00;99617.69;5016858;28;20187;-83
2023/09/10 10:04:34;;;;;;;8.00;7.15;;;;;;;26.40;100.00;99616.72;5008247;28;20214;-84
2023/09/10 10:07:04;;;;;;;8.20;7.55;;;;;;;26.25;100.00;99612.50;5008980;28;20267;-85
2023/09/10 10:09:50;;;;;;;7.80;7.00;;;;;;;26.19;100.00;99609.09;5012049;28;20199;-84
2023/09/10 10:12:19;;;;;;;7.82;7.15;;;;;;;26.33;100.00;99605.38;4978739;28;20211;-83
2023/09/10 10:14:47;;;;;;;7.00;6.40;;;;;;;26.45;98.34;99597.31;4975801;28;20685;-83
2023/09/10 10:17:19;;;;;;;7.60;6.97;;;;;;;26.56;96.74;99596.63;5013091;28;20195;-84
2023/09/10 10:19:52;;;;;;;7.15;6.57;;;;;;;26.72;96.40;99599.69;4965288;28;20260;-84
2023/09/10 10:22:20;;;;;;;6.78;6.18;;;;;;;26.83;93.99;99586.41;4996882;28;20717;-85
2023/09/10 10:24:53;;;;;;;7.13;6.57;;;;;;;27.01;94.49;99596.25;5012918;28;20215;-84
2023/09/10 10:27:22;;;;;;;7.28;6.60;;;;;;;27.06;92.59;99579.56;4975692;28;20219;-83
2023/09/10 10:29:56;;;;;;;7.75;7.05;;;;;;;27.16;90.58;99581.94;4965681;28;20262;-83
2023/09/10 10:32:41;;;;;;;7.32;6.80;;;;;;;27.24;88.51;99574.78;4997073;28;20202;-83
2023/09/10 10:35:13;;;;;;;7.05;6.35;;;;;;;27.30;86.80;99576.19;4996130;28;20198;-83
2023/09/10 10:38:05;;;;;;;7.28;6.78;;;;;;;27.29;87.15;99566.34;5004019;28;20204;-83
2023/09/10 10:40:42;;;;;;;7.38;6.70;;;;;;;27.22;87.26;99566.06;5007449;28;20200;-84
2023/09/10 10:43:18;;;;;;;7.07;6.40;;;;;;;27.27;87.36;99563.13;4992681;28;20289;-82
2023/09/10 10:45:47;;;;;;;7.18;6.60;;;;;;;27.29;85.86;99564.41;4976108;28;20221;-83
2023/09/10 10:48:24;;;;;;;6.82;6.25;;;;;;;27.19;84.42;99558.47;4965318;28;20283;-84
2023/09/10 10:50:56;;;;;;;7.10;6.60;;;;;;;27.29;84.17;99555.34;4971365;28;20199;-85
2023/09/10 10:53:35;;;;;;;7.13;6.63;;;;;;;27.43;84.17;99551.22;4985718;28;20218;-84
2023/09/10 10:56:11;;;;;;;7.03;6.43;;;;;;;27.47;82.92;99565.13;4970238;28;20258;-83
2023/09/10 10:58:47;;;;;;;8.00;7.35;;;;;;;27.62;83.44;99556.31;4978678;28;20226;-83
2023/09/10 11:01:20;;;;;;;7.22;6.55;;;;;;;27.76;81.26;99550.56;4988349;28;20215;-83
2023/09/10 11:03:55;;;;;;;7.10;6.50;;;;;;;27.90;81.20;99556.59;4960298;28;20578;-84
2023/09/10 11:06:28;;;;;;;7.25;6.10;;;;;;;28.08;82.52;99551.75;4997354;28;20196;-83
2023/09/10 11:09:37;;;;;;;7.45;6.80;;;;;;;28.29;78.30;99555.31;4989278;28;20204;-84
2023/09/10 11:12:06;;;;;;;6.70;6.10;;;;;;;28.49;77.59;99545.38;4978313;28;20215;-83
2023/09/10 11:15:00;;;;;;;6.97;6.47;;;;;;;28.56;75.60;99543.69;4998493;28;20195;-84
2023/09/10 11:21:06;;;;;;;6.35;5.85;;;;;;;28.67;74.09;99541.28;4988494;28;20783;-84
2023/09/10 11:23:54;;;;;;;6.18;5.65;;;;;;;28.66;73.33;99534.97;4992308;28;20250;-84
2023/09/10 11:26:26;;;;;;;6.68;6.07;;;;;;;28.74;73.51;99541.59;4993738;28;20231;-84
2023/09/10 11:28:55;;;;;;;6.70;6.20;;;;;;;28.81;73.71;99531.59;4993561;28;20210;-83
2023/09/10 11:31:37;;;;;;;5.90;5.40;;;;;;;28.87;73.38;99532.19;5008337;28;20200;-84
2023/09/10 11:34:17;;;;;;;6.35;5.90;;;;;;;28.99;73.34;99532.19;4993194;28;20223;-84
2023/09/10 11:37:02;;;;;;;6.68;6.07;;;;;;;29.03;72.28;99529.53;4987728;28;20290;-85
2023/09/10 11:39:36;;;;;;;6.72;6.20;;;;;;;29.08;71.20;99524.59;4970321;28;20223;-84
2023/09/10 11:42:08;;;;;;;6.53;5.95;;;;;;;29.14;71.39;99527.94;4976386;28;20475;-85
2023/09/10 11:44:42;;;;;;;6.53;6.00;;;;;;;29.24;71.07;99524.72;4975748;28;20612;-85
2023/09/10 11:47:15;;;;;;;6.25;5.53;;;;;;;29.29;71.98;99527.25;4992104;28;20605;-84
2023/09/10 11:49:52;;;;;;;6.43;5.93;;;;;;;29.38;69.16;99524.38;4993566;28;20197;-84
2023/09/10 11:52:22;;;;;;;6.47;5.88;;;;;;;29.31;68.65;99516.69;4968641;28;20203;-84
2023/09/10 11:54:51;;;;;;;6.47;6.00;;;;;;;29.28;68.72;99511.84;4973075;28;20262;-83
2023/09/10 11:57:29;;;;;;;6.55;5.95;;;;;;;29.44;68.87;99510.03;4970093;28;20314;-84
2023/09/10 12:00:00;;;;;;;6.43;5.82;;;;;;;29.25;69.12;99495.97;4966393;28;20191;-85
2023/09/10 12:02:38;;;;;;;6.15;5.75;;;;;;;29.39;65.98;99510.25;4992265;28;20207;-85
2023/09/10 12:05:08;;;;;;;6.03;5.43;;;;;;;29.14;64.41;99492.88;4991090;28;20800;-85
2023/09/10 12:07:43;;;;;;;6.00;5.50;;;;;;;29.28;64.45;99503.56;4976701;28;20299;-85